BAW952M EGLL-EDDM
Flight info
| Callsign | BAW952M |
|---|---|
| Flight time | 1h 22m |
| Altitude | 37000 |
| Route | DET L6 DVR UL9 KONAN UL607 SPI DCT MOVUM T109 HAREM T104 ROKIL ROKIL1B |
| Aircraft | A320/M-SDE3FGHIRWY/LB1 |
Departure
| Time | 2026-05-05 11:08 |
|---|---|
| Airport | London Heathrow Airport (EGLL) |
Arrival
| Time | 2026-05-05 12:31 |
|---|---|
| Airport | Munich Airport (EDDM) |
| Time | Latitude | Longitude | Altitude | Speed | Heading |
|---|---|---|---|---|---|
| 2026-05-05 10:49 | 51.47188 | -0.48589 | 86 ft | 0 kts | 269° |
| 2026-05-05 10:59 | 51.47188 | -0.48567 | 88 ft | 4 kts | 269° |
| 2026-05-05 11:00 | 51.47188 | -0.48530 | 89 ft | 2 kts | 270° |
| 2026-05-05 11:00 | 51.47191 | -0.48492 | 86 ft | 4 kts | 236° |
| 2026-05-05 11:00 | 51.47209 | -0.48473 | 89 ft | 3 kts | 180° |
| 2026-05-05 11:00 | 51.47227 | -0.48473 | 86 ft | 0 kts | 179° |
| 2026-05-05 11:03 | 51.47211 | -0.48473 | 88 ft | 7 kts | 179° |
| 2026-05-05 11:04 | 51.47145 | -0.48472 | 86 ft | 11 kts | 179° |
| 2026-05-05 11:04 | 51.47063 | -0.48471 | 89 ft | 13 kts | 180° |
| 2026-05-05 11:04 | 51.46973 | -0.48471 | 88 ft | 8 kts | 179° |
| 2026-05-05 11:04 | 51.46944 | -0.48470 | 87 ft | 5 kts | 179° |
| 2026-05-05 11:05 | 51.46897 | -0.48469 | 88 ft | 8 kts | 180° |
| 2026-05-05 11:05 | 51.46864 | -0.48469 | 87 ft | 0 kts | 179° |
| 2026-05-05 11:06 | 51.46863 | -0.48469 | 86 ft | 1 kts | 179° |
| 2026-05-05 11:06 | 51.46804 | -0.48468 | 86 ft | 16 kts | 180° |
| 2026-05-05 11:07 | 51.46669 | -0.48468 | 86 ft | 21 kts | 179° |
| 2026-05-05 11:07 | 51.46529 | -0.48465 | 87 ft | 13 kts | 176° |
| 2026-05-05 11:07 | 51.46478 | -0.48353 | 87 ft | 16 kts | 91° |
| 2026-05-05 11:07 | 51.46481 | -0.47860 | 87 ft | 80 kts | 90° |
| 2026-05-05 11:08 | 51.46486 | -0.46642 | 92 ft | 135 kts | 89° |
| 2026-05-05 11:08 | 51.46483 | -0.44928 | 242 ft | 165 kts | 88° |
| 2026-05-05 11:08 | 51.46449 | -0.43026 | 803 ft | 174 kts | 88° |
| 2026-05-05 11:08 | 51.46222 | -0.41117 | 1493 ft | 183 kts | 116° |
| 2026-05-05 11:09 | 51.45454 | -0.39326 | 1836 ft | 206 kts | 120° |
| 2026-05-05 11:09 | 51.44643 | -0.37261 | 2186 ft | 231 kts | 117° |
| 2026-05-05 11:09 | 51.43815 | -0.34910 | 2738 ft | 251 kts | 110° |
| 2026-05-05 11:09 | 51.43337 | -0.32181 | 3598 ft | 257 kts | 100° |
| 2026-05-05 11:10 | 51.42929 | -0.29375 | 4643 ft | 260 kts | 101° |
| 2026-05-05 11:10 | 51.42523 | -0.26545 | 5643 ft | 262 kts | 100° |
| 2026-05-05 11:10 | 51.42126 | -0.23676 | 6612 ft | 266 kts | 101° |
| 2026-05-05 11:10 | 51.41728 | -0.20766 | 7493 ft | 270 kts | 101° |
| 2026-05-05 11:11 | 51.41324 | -0.17792 | 8338 ft | 276 kts | 101° |
| 2026-05-05 11:11 | 51.40909 | -0.14745 | 9178 ft | 283 kts | 101° |
| 2026-05-05 11:11 | 51.40481 | -0.11637 | 10003 ft | 289 kts | 101° |
| 2026-05-05 11:11 | 51.40035 | -0.08380 | 10391 ft | 311 kts | 101° |
| 2026-05-05 11:12 | 51.39553 | -0.04868 | 10633 ft | 334 kts | 101° |
| 2026-05-05 11:12 | 51.39041 | -0.01171 | 11146 ft | 345 kts | 101° |
| 2026-05-05 11:12 | 51.38514 | 0.02605 | 11866 ft | 349 kts | 101° |
| 2026-05-05 11:12 | 51.37985 | 0.06407 | 12631 ft | 351 kts | 102° |
| 2026-05-05 11:13 | 51.37450 | 0.10237 | 13375 ft | 355 kts | 101° |
| 2026-05-05 11:13 | 51.36907 | 0.14108 | 14076 ft | 358 kts | 101° |
| 2026-05-05 11:13 | 51.36356 | 0.18010 | 14743 ft | 361 kts | 102° |
| 2026-05-05 11:13 | 51.35799 | 0.21944 | 15389 ft | 364 kts | 102° |
| 2026-05-05 11:14 | 51.35237 | 0.25919 | 15996 ft | 368 kts | 102° |
| 2026-05-05 11:14 | 51.34863 | 0.28575 | 16397 ft | 371 kts | 102° |
| 2026-05-05 11:14 | 51.34292 | 0.32610 | 17024 ft | 374 kts | 102° |
| 2026-05-05 11:14 | 51.33715 | 0.36679 | 17655 ft | 378 kts | 102° |
| 2026-05-05 11:15 | 51.33128 | 0.40787 | 17927 ft | 380 kts | 103° |
| 2026-05-05 11:15 | 51.32345 | 0.46242 | 18106 ft | 379 kts | 102° |
| 2026-05-05 11:15 | 51.31755 | 0.50336 | 18101 ft | 378 kts | 103° |
| 2026-05-05 11:15 | 51.31362 | 0.53057 | 18108 ft | 378 kts | 103° |
| 2026-05-05 11:16 | 51.30767 | 0.57159 | 18096 ft | 379 kts | 103° |
| 2026-05-05 11:16 | 51.30159 | 0.61247 | 18086 ft | 378 kts | 104° |
| 2026-05-05 11:16 | 51.29476 | 0.65306 | 18085 ft | 378 kts | 105° |
| 2026-05-05 11:16 | 51.28734 | 0.69345 | 18126 ft | 381 kts | 107° |
| 2026-05-05 11:17 | 51.27959 | 0.73409 | 18704 ft | 383 kts | 107° |
| 2026-05-05 11:17 | 51.27178 | 0.77492 | 19297 ft | 386 kts | 107° |
| 2026-05-05 11:17 | 51.26397 | 0.81613 | 19868 ft | 389 kts | 107° |
| 2026-05-05 11:17 | 51.25620 | 0.85762 | 20385 ft | 393 kts | 107° |
| 2026-05-05 11:18 | 51.24844 | 0.89959 | 20923 ft | 396 kts | 107° |
| 2026-05-05 11:18 | 51.24069 | 0.94186 | 21414 ft | 399 kts | 107° |
| 2026-05-05 11:18 | 51.23288 | 0.98440 | 21979 ft | 400 kts | 108° |
| 2026-05-05 11:18 | 51.22500 | 1.02704 | 22537 ft | 401 kts | 108° |
| 2026-05-05 11:19 | 51.21705 | 1.06977 | 23097 ft | 403 kts | 108° |
| 2026-05-05 11:19 | 51.20903 | 1.11269 | 23619 ft | 405 kts | 108° |
| 2026-05-05 11:19 | 51.20094 | 1.15590 | 24020 ft | 408 kts | 108° |
| 2026-05-05 11:19 | 51.19278 | 1.19941 | 24432 ft | 411 kts | 108° |
| 2026-05-05 11:20 | 51.18456 | 1.24309 | 24850 ft | 413 kts | 109° |
| 2026-05-05 11:20 | 51.17621 | 1.28734 | 25255 ft | 416 kts | 108° |
| 2026-05-05 11:20 | 51.16787 | 1.33165 | 25628 ft | 419 kts | 107° |
| 2026-05-05 11:20 | 51.16195 | 1.37735 | 26011 ft | 424 kts | 98° |
| 2026-05-05 11:21 | 51.15951 | 1.42438 | 26396 ft | 427 kts | 96° |
| 2026-05-05 11:21 | 51.15729 | 1.47173 | 26794 ft | 430 kts | 96° |
| 2026-05-05 11:21 | 51.15504 | 1.51937 | 27185 ft | 433 kts | 97° |
| 2026-05-05 11:21 | 51.15271 | 1.56735 | 27574 ft | 436 kts | 96° |
| 2026-05-05 11:22 | 51.15034 | 1.61562 | 27955 ft | 439 kts | 97° |
| 2026-05-05 11:22 | 51.14795 | 1.66421 | 28331 ft | 442 kts | 97° |
| 2026-05-05 11:22 | 51.14550 | 1.71312 | 28691 ft | 444 kts | 97° |
| 2026-05-05 11:22 | 51.14302 | 1.76236 | 29036 ft | 447 kts | 97° |
| 2026-05-05 11:23 | 51.14050 | 1.81192 | 29404 ft | 450 kts | 97° |
| 2026-05-05 11:23 | 51.13795 | 1.86176 | 29761 ft | 453 kts | 97° |
| 2026-05-05 11:23 | 51.13538 | 1.91181 | 30101 ft | 455 kts | 97° |
| 2026-05-05 11:23 | 51.13277 | 1.96193 | 30585 ft | 453 kts | 97° |
| 2026-05-05 11:24 | 51.13014 | 2.01190 | 31063 ft | 452 kts | 97° |
| 2026-05-05 11:24 | 51.12752 | 2.06179 | 31502 ft | 452 kts | 97° |
| 2026-05-05 11:24 | 51.12487 | 2.11169 | 31935 ft | 452 kts | 97° |
| 2026-05-05 11:24 | 51.12225 | 2.16093 | 32366 ft | 452 kts | 97° |
| 2026-05-05 11:25 | 51.11958 | 2.21091 | 32806 ft | 452 kts | 97° |
| 2026-05-05 11:25 | 51.11687 | 2.26079 | 33240 ft | 452 kts | 97° |
| 2026-05-05 11:25 | 51.11412 | 2.31068 | 33672 ft | 453 kts | 98° |
| 2026-05-05 11:25 | 51.11134 | 2.36054 | 34085 ft | 453 kts | 98° |
| 2026-05-05 11:26 | 51.10855 | 2.41054 | 34454 ft | 453 kts | 98° |
| 2026-05-05 11:26 | 51.10574 | 2.46045 | 34811 ft | 453 kts | 98° |
| 2026-05-05 11:26 | 51.10291 | 2.51046 | 35149 ft | 453 kts | 97° |
| 2026-05-05 11:26 | 51.10005 | 2.56047 | 35492 ft | 454 kts | 97° |
| 2026-05-05 11:27 | 51.09716 | 2.61044 | 35817 ft | 454 kts | 97° |
| 2026-05-05 11:27 | 51.09280 | 2.66004 | 36145 ft | 452 kts | 105° |
| 2026-05-05 11:27 | 51.08461 | 2.70825 | 36461 ft | 451 kts | 108° |
| 2026-05-05 11:27 | 51.07587 | 2.75624 | 36776 ft | 452 kts | 108° |
| 2026-05-05 11:28 | 51.06726 | 2.80366 | 36908 ft | 453 kts | 108° |
| 2026-05-05 11:28 | 51.04974 | 2.90011 | 36945 ft | 454 kts | 109° |
| 2026-05-05 11:29 | 51.03212 | 2.99661 | 36944 ft | 454 kts | 109° |
| 2026-05-05 11:29 | 51.01436 | 3.09295 | 36935 ft | 454 kts | 109° |
| 2026-05-05 11:30 | 50.99657 | 3.18918 | 36932 ft | 454 kts | 109° |
| 2026-05-05 11:30 | 50.97869 | 3.28554 | 36931 ft | 455 kts | 109° |
| 2026-05-05 11:31 | 50.96082 | 3.38169 | 36924 ft | 455 kts | 109° |
| 2026-05-05 11:31 | 50.94279 | 3.47782 | 36934 ft | 455 kts | 110° |
| 2026-05-05 11:32 | 50.92456 | 3.57390 | 36933 ft | 455 kts | 110° |
| 2026-05-05 11:32 | 50.90632 | 3.66990 | 36934 ft | 454 kts | 110° |
| 2026-05-05 11:33 | 50.88795 | 3.76573 | 36924 ft | 454 kts | 110° |
| 2026-05-05 11:33 | 50.86953 | 3.86080 | 36925 ft | 455 kts | 110° |
| 2026-05-05 11:34 | 50.85085 | 3.95641 | 36923 ft | 455 kts | 110° |
| 2026-05-05 11:34 | 50.83215 | 4.05208 | 36928 ft | 455 kts | 110° |
| 2026-05-05 11:35 | 50.81336 | 4.14773 | 36930 ft | 455 kts | 110° |
| 2026-05-05 11:35 | 50.79452 | 4.24335 | 36930 ft | 455 kts | 111° |
| 2026-05-05 11:36 | 50.77563 | 4.33869 | 36942 ft | 454 kts | 111° |
| 2026-05-05 11:36 | 50.75667 | 4.43374 | 36942 ft | 453 kts | 111° |
| 2026-05-05 11:37 | 50.73766 | 4.52855 | 36938 ft | 453 kts | 111° |
| 2026-05-05 11:37 | 50.71862 | 4.62315 | 36935 ft | 452 kts | 111° |
| 2026-05-05 11:38 | 50.70008 | 4.71803 | 36913 ft | 453 kts | 110° |
| 2026-05-05 11:38 | 50.68184 | 4.81302 | 36913 ft | 453 kts | 111° |
| 2026-05-05 11:39 | 50.66341 | 4.90791 | 36914 ft | 453 kts | 111° |
| 2026-05-05 11:39 | 50.64444 | 5.00265 | 36916 ft | 453 kts | 111° |
| 2026-05-05 11:40 | 50.62495 | 5.09690 | 36909 ft | 453 kts | 112° |
| 2026-05-05 11:40 | 50.60531 | 5.19100 | 36901 ft | 452 kts | 112° |
| 2026-05-05 11:41 | 50.58573 | 5.28511 | 36906 ft | 452 kts | 112° |
| 2026-05-05 11:41 | 50.56630 | 5.37857 | 36908 ft | 452 kts | 112° |
| 2026-05-05 11:42 | 50.54670 | 5.47247 | 36902 ft | 452 kts | 112° |
| 2026-05-05 11:42 | 50.52680 | 5.56675 | 36901 ft | 452 kts | 112° |
| 2026-05-05 11:43 | 50.50732 | 5.65994 | 36882 ft | 452 kts | 111° |
| 2026-05-05 11:43 | 50.48999 | 5.75499 | 36889 ft | 453 kts | 109° |
| 2026-05-05 11:44 | 50.47362 | 5.85030 | 36891 ft | 452 kts | 109° |
| 2026-05-05 11:44 | 50.45666 | 5.94512 | 36886 ft | 451 kts | 110° |
| 2026-05-05 11:45 | 50.43921 | 6.03964 | 36864 ft | 450 kts | 110° |
| 2026-05-05 11:45 | 50.43077 | 6.08494 | 36867 ft | 450 kts | 111° |
| 2026-05-05 11:46 | 50.41319 | 6.17921 | 36863 ft | 450 kts | 111° |
| 2026-05-05 11:46 | 50.39568 | 6.27363 | 36866 ft | 451 kts | 110° |
| 2026-05-05 11:47 | 50.37807 | 6.36786 | 36855 ft | 450 kts | 111° |
| 2026-05-05 11:47 | 50.36039 | 6.46202 | 36855 ft | 450 kts | 111° |
| 2026-05-05 11:48 | 50.33372 | 6.60305 | 36850 ft | 451 kts | 111° |
| 2026-05-05 11:48 | 50.31581 | 6.69710 | 36861 ft | 451 kts | 111° |
| 2026-05-05 11:49 | 50.29797 | 6.79057 | 36868 ft | 451 kts | 111° |
| 2026-05-05 11:49 | 50.27991 | 6.88458 | 36879 ft | 451 kts | 111° |
| 2026-05-05 11:50 | 50.26175 | 6.97855 | 36868 ft | 451 kts | 111° |
| 2026-05-05 11:50 | 50.24353 | 7.07249 | 36876 ft | 452 kts | 111° |
| 2026-05-05 11:51 | 50.22527 | 7.16652 | 36879 ft | 452 kts | 111° |
| 2026-05-05 11:51 | 50.20706 | 7.25980 | 36878 ft | 452 kts | 112° |
| 2026-05-05 11:52 | 50.18858 | 7.35359 | 36854 ft | 452 kts | 112° |
| 2026-05-05 11:52 | 50.17000 | 7.44715 | 36859 ft | 451 kts | 112° |
| 2026-05-05 11:53 | 50.15139 | 7.54051 | 36868 ft | 450 kts | 112° |
| 2026-05-05 11:53 | 50.13278 | 7.63379 | 36867 ft | 450 kts | 112° |
| 2026-05-05 11:54 | 50.11416 | 7.72678 | 36868 ft | 450 kts | 112° |
| 2026-05-05 11:54 | 50.09546 | 7.81971 | 36848 ft | 449 kts | 112° |
| 2026-05-05 11:55 | 50.07671 | 7.91197 | 36858 ft | 450 kts | 112° |
| 2026-05-05 11:55 | 50.05778 | 8.00480 | 36868 ft | 450 kts | 112° |
| 2026-05-05 11:56 | 50.03881 | 8.09760 | 36868 ft | 450 kts | 112° |
| 2026-05-05 11:56 | 50.01972 | 8.19042 | 36876 ft | 451 kts | 112° |
| 2026-05-05 11:57 | 50.00058 | 8.28326 | 36857 ft | 451 kts | 112° |
| 2026-05-05 11:57 | 49.98133 | 8.37616 | 36863 ft | 452 kts | 112° |
| 2026-05-05 11:58 | 49.96198 | 8.46895 | 36841 ft | 452 kts | 113° |
| 2026-05-05 11:58 | 49.93829 | 8.55844 | 36846 ft | 444 kts | 125° |
| 2026-05-05 11:59 | 49.90749 | 8.64171 | 36863 ft | 444 kts | 124° |
| 2026-05-05 11:59 | 49.87679 | 8.72495 | 36864 ft | 445 kts | 124° |
| 2026-05-05 12:00 | 49.85129 | 8.79414 | 36871 ft | 445 kts | 124° |
| 2026-05-05 12:00 | 49.82042 | 8.87717 | 36879 ft | 444 kts | 125° |
| 2026-05-05 12:01 | 49.78450 | 8.97316 | 36878 ft | 443 kts | 125° |
| 2026-05-05 12:01 | 49.75869 | 9.04229 | 36877 ft | 443 kts | 125° |
| 2026-05-05 12:02 | 49.72801 | 9.12410 | 36861 ft | 442 kts | 125° |
| 2026-05-05 12:02 | 49.69705 | 9.20625 | 36865 ft | 443 kts | 125° |
| 2026-05-05 12:03 | 49.66605 | 9.28849 | 36868 ft | 443 kts | 125° |
| 2026-05-05 12:03 | 49.63493 | 9.37056 | 36871 ft | 443 kts | 125° |
| 2026-05-05 12:04 | 49.59964 | 9.44740 | 36874 ft | 436 kts | 136° |
| 2026-05-05 12:04 | 49.55990 | 9.51714 | 36857 ft | 436 kts | 136° |
| 2026-05-05 12:05 | 49.51991 | 9.58726 | 36865 ft | 436 kts | 136° |
| 2026-05-05 12:05 | 49.47988 | 9.65731 | 36866 ft | 436 kts | 136° |
| 2026-05-05 12:06 | 49.43977 | 9.72719 | 36865 ft | 435 kts | 136° |
| 2026-05-05 12:06 | 49.39962 | 9.79677 | 36865 ft | 435 kts | 136° |
| 2026-05-05 12:07 | 49.35944 | 9.86635 | 36846 ft | 435 kts | 136° |
| 2026-05-05 12:07 | 49.31924 | 9.93581 | 36852 ft | 436 kts | 136° |
| 2026-05-05 12:08 | 49.27894 | 10.00530 | 36857 ft | 435 kts | 136° |
| 2026-05-05 12:08 | 49.25878 | 10.03993 | 36746 ft | 435 kts | 136° |
| 2026-05-05 12:08 | 49.23893 | 10.07395 | 36159 ft | 435 kts | 136° |
| 2026-05-05 12:09 | 49.21871 | 10.10853 | 35438 ft | 437 kts | 136° |
| 2026-05-05 12:09 | 49.19842 | 10.14317 | 34720 ft | 438 kts | 137° |
| 2026-05-05 12:09 | 49.17800 | 10.17802 | 33928 ft | 441 kts | 137° |
| 2026-05-05 12:09 | 49.15745 | 10.21306 | 33024 ft | 444 kts | 137° |
| 2026-05-05 12:10 | 49.13674 | 10.24825 | 32079 ft | 446 kts | 137° |
| 2026-05-05 12:10 | 49.11565 | 10.28320 | 31153 ft | 449 kts | 137° |
| 2026-05-05 12:10 | 49.09415 | 10.31791 | 30271 ft | 451 kts | 137° |
| 2026-05-05 12:10 | 49.07242 | 10.35250 | 29357 ft | 451 kts | 137° |
| 2026-05-05 12:11 | 49.05092 | 10.38663 | 28792 ft | 443 kts | 137° |
| 2026-05-05 12:11 | 49.02971 | 10.42028 | 28138 ft | 437 kts | 137° |
| 2026-05-05 12:11 | 49.00880 | 10.45361 | 27463 ft | 431 kts | 137° |
| 2026-05-05 12:11 | 48.98826 | 10.48647 | 26792 ft | 427 kts | 137° |
| 2026-05-05 12:12 | 48.96788 | 10.51903 | 26160 ft | 422 kts | 137° |
| 2026-05-05 12:12 | 48.94771 | 10.55116 | 25517 ft | 418 kts | 137° |
| 2026-05-05 12:12 | 48.92773 | 10.58293 | 24847 ft | 414 kts | 136° |
| 2026-05-05 12:12 | 48.90783 | 10.61459 | 24225 ft | 411 kts | 136° |
| 2026-05-05 12:13 | 48.88812 | 10.64590 | 23599 ft | 408 kts | 136° |
| 2026-05-05 12:13 | 48.86858 | 10.67687 | 22910 ft | 405 kts | 136° |
| 2026-05-05 12:13 | 48.84921 | 10.70750 | 22324 ft | 399 kts | 136° |
| 2026-05-05 12:13 | 48.83035 | 10.73734 | 21738 ft | 394 kts | 136° |
| 2026-05-05 12:14 | 48.81122 | 10.76758 | 21171 ft | 390 kts | 136° |
| 2026-05-05 12:14 | 48.79253 | 10.79706 | 20629 ft | 386 kts | 136° |
| 2026-05-05 12:14 | 48.77395 | 10.82628 | 20078 ft | 383 kts | 137° |
| 2026-05-05 12:14 | 48.75579 | 10.85479 | 19564 ft | 379 kts | 137° |
| 2026-05-05 12:15 | 48.73729 | 10.88377 | 19023 ft | 376 kts | 137° |
| 2026-05-05 12:15 | 48.71917 | 10.91206 | 18499 ft | 373 kts | 137° |
| 2026-05-05 12:15 | 48.70114 | 10.94019 | 17914 ft | 370 kts | 137° |
| 2026-05-05 12:15 | 48.68325 | 10.96806 | 17342 ft | 367 kts | 137° |
| 2026-05-05 12:16 | 48.66586 | 10.99515 | 16802 ft | 362 kts | 137° |
| 2026-05-05 12:16 | 48.64837 | 11.02238 | 16239 ft | 359 kts | 137° |
| 2026-05-05 12:16 | 48.63100 | 11.04940 | 15669 ft | 357 kts | 136° |
| 2026-05-05 12:16 | 48.61372 | 11.07620 | 15101 ft | 355 kts | 136° |
| 2026-05-05 12:17 | 48.59649 | 11.10287 | 14532 ft | 354 kts | 136° |
| 2026-05-05 12:17 | 48.57894 | 11.12863 | 13961 ft | 351 kts | 142° |
| 2026-05-05 12:17 | 48.55918 | 11.15001 | 13312 ft | 350 kts | 148° |
| 2026-05-05 12:17 | 48.54080 | 11.17389 | 12803 ft | 348 kts | 131° |
| 2026-05-05 12:18 | 48.52838 | 11.20456 | 12562 ft | 340 kts | 114° |
| 2026-05-05 12:18 | 48.52275 | 11.23883 | 12304 ft | 338 kts | 96° |
| 2026-05-05 12:18 | 48.52437 | 11.27414 | 12065 ft | 339 kts | 80° |
| 2026-05-05 12:18 | 48.52948 | 11.30892 | 11846 ft | 340 kts | 79° |
| 2026-05-05 12:19 | 48.53452 | 11.34381 | 11527 ft | 340 kts | 79° |
| 2026-05-05 12:19 | 48.53950 | 11.37868 | 11206 ft | 338 kts | 79° |
| 2026-05-05 12:19 | 48.54440 | 11.41320 | 10890 ft | 336 kts | 79° |
| 2026-05-05 12:19 | 48.54926 | 11.44766 | 10569 ft | 334 kts | 79° |
| 2026-05-05 12:20 | 48.55404 | 11.48182 | 10260 ft | 332 kts | 79° |
| 2026-05-05 12:20 | 48.55861 | 11.51447 | 10071 ft | 310 kts | 79° |
| 2026-05-05 12:20 | 48.56305 | 11.54602 | 9649 ft | 299 kts | 79° |
| 2026-05-05 12:20 | 48.56683 | 11.57605 | 9451 ft | 293 kts | 85° |
| 2026-05-05 12:21 | 48.56652 | 11.60662 | 9321 ft | 291 kts | 99° |
| 2026-05-05 12:21 | 48.56148 | 11.63599 | 9191 ft | 289 kts | 111° |
| 2026-05-05 12:21 | 48.55482 | 11.66462 | 9058 ft | 288 kts | 110° |
| 2026-05-05 12:21 | 48.54824 | 11.69320 | 8840 ft | 287 kts | 110° |
| 2026-05-05 12:22 | 48.54172 | 11.72164 | 8583 ft | 286 kts | 110° |
| 2026-05-05 12:22 | 48.53525 | 11.74989 | 8319 ft | 284 kts | 110° |
| 2026-05-05 12:22 | 48.52879 | 11.77801 | 8053 ft | 283 kts | 110° |
| 2026-05-05 12:22 | 48.52237 | 11.80597 | 7789 ft | 281 kts | 110° |
| 2026-05-05 12:23 | 48.51595 | 11.83383 | 7525 ft | 280 kts | 110° |
| 2026-05-05 12:23 | 48.50953 | 11.86155 | 7268 ft | 279 kts | 110° |
| 2026-05-05 12:23 | 48.50314 | 11.88912 | 7007 ft | 278 kts | 110° |
| 2026-05-05 12:23 | 48.49678 | 11.91658 | 6738 ft | 277 kts | 110° |
| 2026-05-05 12:24 | 48.49042 | 11.94395 | 6488 ft | 275 kts | 110° |
| 2026-05-05 12:24 | 48.48409 | 11.97114 | 6232 ft | 275 kts | 110° |
| 2026-05-05 12:24 | 48.47777 | 11.99829 | 5958 ft | 274 kts | 110° |
| 2026-05-05 12:24 | 48.47151 | 12.02520 | 5697 ft | 270 kts | 110° |
| 2026-05-05 12:25 | 48.46534 | 12.05164 | 5547 ft | 262 kts | 110° |
| 2026-05-05 12:25 | 48.45941 | 12.07697 | 5489 ft | 251 kts | 110° |
| 2026-05-05 12:25 | 48.45206 | 12.09996 | 5430 ft | 238 kts | 130° |
| 2026-05-05 12:25 | 48.43966 | 12.11448 | 5372 ft | 224 kts | 158° |
| 2026-05-05 12:26 | 48.42487 | 12.11854 | 5294 ft | 215 kts | 185° |
| 2026-05-05 12:26 | 48.41068 | 12.11236 | 5191 ft | 213 kts | 208° |
| 2026-05-05 12:26 | 48.39772 | 12.10148 | 5062 ft | 214 kts | 217° |
| 2026-05-05 12:26 | 48.38826 | 12.08456 | 4829 ft | 212 kts | 246° |
| 2026-05-05 12:27 | 48.38490 | 12.06318 | 4577 ft | 210 kts | 264° |
| 2026-05-05 12:27 | 48.38335 | 12.04133 | 4304 ft | 210 kts | 264° |
| 2026-05-05 12:27 | 48.38181 | 12.01984 | 4043 ft | 203 kts | 264° |
| 2026-05-05 12:27 | 48.38028 | 11.99914 | 3767 ft | 196 kts | 264° |
| 2026-05-05 12:28 | 48.37879 | 11.97915 | 3516 ft | 188 kts | 264° |
| 2026-05-05 12:28 | 48.37739 | 11.96054 | 3289 ft | 170 kts | 264° |
| 2026-05-05 12:28 | 48.37612 | 11.94365 | 3091 ft | 153 kts | 264° |
| 2026-05-05 12:28 | 48.37496 | 11.92826 | 2890 ft | 144 kts | 264° |
| 2026-05-05 12:29 | 48.37385 | 11.91346 | 2698 ft | 141 kts | 263° |
| 2026-05-05 12:29 | 48.37275 | 11.89889 | 2513 ft | 140 kts | 264° |
| 2026-05-05 12:29 | 48.37167 | 11.88432 | 2325 ft | 140 kts | 265° |
| 2026-05-05 12:29 | 48.37068 | 11.86968 | 2089 ft | 141 kts | 265° |
| 2026-05-05 12:30 | 48.36956 | 11.85501 | 1902 ft | 141 kts | 264° |
| 2026-05-05 12:30 | 48.36828 | 11.84044 | 1723 ft | 143 kts | 265° |
| 2026-05-05 12:30 | 48.36724 | 11.82551 | 1566 ft | 141 kts | 265° |
| 2026-05-05 12:30 | 48.36610 | 11.81133 | 1465 ft | 129 kts | 266° |
| 2026-05-05 12:31 | 48.36528 | 11.80019 | 1464 ft | 83 kts | 263° |
| 2026-05-05 12:31 | 48.36483 | 11.79419 | 1467 ft | 27 kts | 264° |
| 2026-05-05 12:31 | 48.36469 | 11.79257 | 1470 ft | 16 kts | 262° |
| 2026-05-05 12:31 | 48.36450 | 11.79051 | 1458 ft | 21 kts | 260° |
| 2026-05-05 12:32 | 48.36396 | 11.78885 | 1463 ft | 15 kts | 230° |
| 2026-05-05 12:32 | 48.36322 | 11.78746 | 1464 ft | 20 kts | 233° |
| 2026-05-05 12:32 | 48.36235 | 11.78569 | 1461 ft | 22 kts | 231° |
| 2026-05-05 12:32 | 48.36131 | 11.78479 | 1467 ft | 16 kts | 180° |
| 2026-05-05 12:33 | 48.36034 | 11.78535 | 1462 ft | 15 kts | 114° |
| 2026-05-05 12:33 | 48.36046 | 11.78700 | 1467 ft | 17 kts | 81° |
| 2026-05-05 12:33 | 48.36060 | 11.78893 | 1464 ft | 20 kts | 84° |
| 2026-05-05 12:33 | 48.36075 | 11.79112 | 1468 ft | 22 kts | 82° |
| 2026-05-05 12:34 | 48.36085 | 11.79278 | 1468 ft | 15 kts | 102° |
| 2026-05-05 12:34 | 48.35995 | 11.79335 | 1466 ft | 15 kts | 174° |
| 2026-05-05 12:34 | 48.35906 | 11.79366 | 1462 ft | 11 kts | 154° |
| 2026-05-05 12:34 | 48.35819 | 11.79391 | 1464 ft | 14 kts | 175° |
| 2026-05-05 12:35 | 48.35720 | 11.79406 | 1467 ft | 11 kts | 179° |
| 2026-05-05 12:35 | 48.35684 | 11.79315 | 1465 ft | 10 kts | 263° |
| 2026-05-05 12:35 | 48.35680 | 11.79262 | 1461 ft | 0 kts | 263° |